Time;durP1;ratioP1;P1;durP2;ratioP2;P2;SDS_P1;SDS_P2;PMS_P1;PMS_P2;Temp;Humidity;BMP_temperature;BMP_pressure;BME280_temperature;BME280_humidity;BME280_pressure;Samples;Min_cycle;Max_cycle;Signal;HPM_P1;HPM_P2
2022/11/09 00:01:26;;;;;;;3.87;2.00;;;16.40;86.40;;;;;;5108392;28;20433;-70
2022/11/09 00:03:57;;;;;;;3.90;1.70;;;16.30;86.40;;;;;;5108167;28;20484;-70
2022/11/09 00:06:24;;;;;;;1.60;1.47;;;16.30;86.50;;;;;;5109567;28;20515;-70
2022/11/09 00:08:51;;;;;;;1.33;1.17;;;16.30;86.70;;;;;;5109495;28;20753;-70
2022/11/09 00:11:19;;;;;;;3.23;1.70;;;16.30;86.60;;;;;;5108548;28;20448;-70
2022/11/09 00:13:46;;;;;;;1.50;1.40;;;16.30;86.50;;;;;;5107489;28;20468;-70
2022/11/09 00:16:17;;;;;;;4.53;1.97;;;16.30;86.40;;;;;;5108574;28;20454;-70
2022/11/09 00:18:46;;;;;;;7.77;1.40;;;16.30;86.10;;;;;;5108353;28;20808;-70
2022/11/09 00:21:15;;;;;;;2.87;1.80;;;16.30;86.00;;;;;;5108617;28;20428;-70
2022/11/09 00:23:42;;;;;;;3.43;1.60;;;16.30;86.10;;;;;;5108687;28;20484;-70
2022/11/09 00:26:11;;;;;;;4.23;1.47;;;16.30;85.90;;;;;;5108670;28;20525;-70
2022/11/09 00:28:38;;;;;;;2.73;1.80;;;16.30;85.80;;;;;;5109761;28;20455;-70
2022/11/09 00:31:07;;;;;;;3.37;1.97;;;16.30;85.90;;;;;;5109540;28;20439;-70
2022/11/09 00:33:35;;;;;;;4.40;1.70;;;16.30;85.60;;;;;;5108338;28;20467;-70
2022/11/09 00:36:06;;;;;;;4.03;1.37;;;16.20;85.20;;;;;;5109679;28;20463;-70
2022/11/09 00:38:33;;;;;;;2.17;1.40;;;16.20;85.30;;;;;;5109503;28;20486;-70
2022/11/09 00:41:01;;;;;;;2.37;1.30;;;16.20;85.00;;;;;;5108536;28;20448;-70
2022/11/09 00:43:27;;;;;;;2.27;1.50;;;16.20;84.80;;;;;;5107421;28;20483;-70
2022/11/09 00:45:54;;;;;;;2.77;1.70;;;16.10;84.70;;;;;;5108243;28;20444;-70
2022/11/09 00:48:21;;;;;;;2.60;1.60;;;16.10;84.70;;;;;;5108508;28;20436;-70
2022/11/09 00:50:51;;;;;;;3.30;1.30;;;16.10;84.60;;;;;;5108412;28;20444;-70
2022/11/09 00:53:18;;;;;;;3.20;1.23;;;16.10;84.50;;;;;;5109669;28;20467;-70
2022/11/09 00:55:54;;;;;;;2.40;0.90;;;16.10;84.40;;;;;;5109936;28;20444;-71
2022/11/09 00:58:21;;;;;;;8.20;1.37;;;16.10;84.30;;;;;;5109394;28;20424;-70
2022/11/09 01:00:47;;;;;;;8.70;1.50;;;16.10;84.20;;;;;;5110555;28;20431;-70
2022/11/09 01:03:14;;;;;;;2.67;1.37;;;16.10;84.00;;;;;;5112753;28;20460;-70
2022/11/09 01:05:41;;;;;;;2.30;1.10;;;16.10;84.10;;;;;;5113637;28;20476;-70
2022/11/09 01:08:09;;;;;;;5.20;1.40;;;16.20;84.10;;;;;;5114098;28;20526;-70
2022/11/09 01:10:36;;;;;;;2.10;1.10;;;16.10;83.90;;;;;;5114271;28;20452;-70
2022/11/09 01:13:02;;;;;;;1.20;1.10;;;16.00;83.90;;;;;;5113406;28;20464;-70
2022/11/09 01:15:29;;;;;;;2.20;1.40;;;16.00;84.20;;;;;;5095957;28;20444;-70
2022/11/09 01:17:56;;;;;;;6.13;1.23;;;16.00;84.40;;;;;;5113691;28;20447;-70
2022/11/09 01:20:22;;;;;;;2.20;1.00;;;16.00;84.30;;;;;;5113662;28;20448;-70
2022/11/09 01:22:49;;;;;;;9.43;2.00;;;16.00;84.70;;;;;;5113823;28;20464;-70
2022/11/09 01:25:17;;;;;;;4.97;2.00;;;16.00;84.60;;;;;;5114389;28;20468;-70
2022/11/09 01:27:44;;;;;;;2.73;1.30;;;16.00;84.70;;;;;;5113583;28;20448;-70
2022/11/09 01:30:12;;;;;;;4.53;1.50;;;15.90;84.80;;;;;;5113056;28;20427;-70
2022/11/09 01:32:39;;;;;;;9.80;1.90;;;15.90;84.70;;;;;;5112756;28;20475;-70
2022/11/09 01:35:06;;;;;;;4.90;1.70;;;15.90;85.00;;;;;;5111897;28;20448;-70
2022/11/09 01:37:33;;;;;;;2.20;1.30;;;15.90;85.00;;;;;;5112621;28;20526;-70
2022/11/09 01:39:59;;;;;;;2.53;1.30;;;15.90;85.00;;;;;;5113075;28;20470;-70
2022/11/09 01:42:29;;;;;;;3.60;1.60;;;15.90;85.00;;;;;;5113299;28;20464;-70
2022/11/09 01:45:22;;;;;;;4.63;1.40;;;15.90;85.20;;;;;;5113582;28;20687;-70
2022/11/09 01:47:52;;;;;;;3.27;1.17;;;15.90;85.20;;;;;;5112516;28;20452;-70
2022/11/09 01:50:32;;;;;;;3.10;1.17;;;15.90;85.30;;;;;;5113914;28;20432;-70
2022/11/09 01:53:01;;;;;;;3.33;1.20;;;15.90;85.40;;;;;;5112789;28;20478;-70
2022/11/09 01:55:28;;;;;;;6.40;2.40;;;15.80;85.20;;;;;;5112998;28;20451;-70
2022/11/09 01:58:01;;;;;;;2.90;1.73;;;15.90;85.00;;;;;;5113809;28;20444;-70
2022/11/09 02:00:30;;;;;;;7.50;1.87;;;15.80;85.10;;;;;;5113004;28;20435;-70
2022/11/09 02:02:59;;;;;;;5.07;1.57;;;15.80;85.40;;;;;;5107670;28;20460;-70
2022/11/09 02:05:30;;;;;;;7.00;2.10;;;15.70;85.40;;;;;;5109041;28;20498;-70
2022/11/09 02:08:00;;;;;;;6.30;1.80;;;15.70;85.40;;;;;;5112251;28;20434;-70
2022/11/09 02:10:31;;;;;;;3.90;1.67;;;15.80;85.40;;;;;;5113544;28;20439;-70
2022/11/09 02:13:00;;;;;;;3.27;1.80;;;15.80;85.40;;;;;;5111717;28;20841;-70
2022/11/09 02:15:27;;;;;;;2.57;1.30;;;15.70;85.40;;;;;;5112427;28;20448;-70
2022/11/09 02:17:56;;;;;;;5.67;2.07;;;15.80;85.30;;;;;;5112566;28;20445;-70
2022/11/09 02:20:25;;;;;;;6.00;1.70;;;15.70;85.20;;;;;;5112060;28;20452;-70
2022/11/09 02:22:52;;;;;;;5.90;1.80;;;15.80;85.20;;;;;;5112712;28;20464;-70
2022/11/09 02:25:19;;;;;;;6.60;1.90;;;15.80;85.10;;;;;;5113058;28;20476;-70
2022/11/09 02:27:46;;;;;;;4.70;1.80;;;15.80;85.20;;;;;;5112732;28;20448;-70
2022/11/09 02:30:14;;;;;;;4.10;1.63;;;15.80;85.00;;;;;;5111076;28;20444;-70
2022/11/09 02:32:41;;;;;;;3.73;1.63;;;15.70;85.10;;;;;;5111347;28;20495;-70
2022/11/09 02:35:10;;;;;;;5.40;1.73;;;15.70;85.20;;;;;;5112256;28;20440;-70
2022/11/09 02:37:45;;;;;;;4.30;1.50;;;15.70;85.30;;;;;;5115086;28;20456;-70
2022/11/09 02:40:17;;;;;;;6.07;2.63;;;15.70;85.40;;;;;;5113282;28;20439;-70
2022/11/09 02:42:44;;;;;;;6.80;2.10;;;15.70;85.30;;;;;;5114471;28;20470;-70
2022/11/09 02:45:11;;;;;;;5.03;2.00;;;15.70;85.40;;;;;;5115969;28;20480;-70
2022/11/09 02:47:38;;;;;;;4.70;2.07;;;15.70;85.80;;;;;;5116256;28;20440;-70
2022/11/09 02:50:06;;;;;;;4.90;1.97;;;15.70;85.90;;;;;;5115370;28;20444;-70
2022/11/09 02:52:32;;;;;;;5.63;2.23;;;15.70;85.90;;;;;;5115453;28;20468;-70
2022/11/09 02:55:00;;;;;;;7.87;1.93;;;15.70;85.90;;;;;;5114945;28;20444;-70
2022/11/09 02:57:27;;;;;;;4.20;1.50;;;15.70;85.90;;;;;;5115012;28;20448;-70
2022/11/09 02:59:54;;;;;;;3.93;1.30;;;15.70;85.90;;;;;;5114931;28;20448;-70
2022/11/09 03:02:21;;;;;;;9.00;2.20;;;15.70;86.10;;;;;;5114558;28;20460;-70
2022/11/09 03:04:47;;;;;;;2.60;1.30;;;15.70;86.10;;;;;;5114646;28;20468;-70
2022/11/09 03:07:14;;;;;;;3.40;1.20;;;15.70;86.30;;;;;;5114242;28;20444;-70
2022/11/09 03:09:41;;;;;;;10.53;2.00;;;15.70;86.20;;;;;;5114215;28;20444;-70
2022/11/09 03:14:53;;;;;;;7.90;1.70;;;15.70;86.00;;;;;;5113349;28;20420;-69
2022/11/09 03:17:20;;;;;;;8.30;1.60;;;15.80;86.10;;;;;;5110986;28;20436;-70
2022/11/09 03:19:47;;;;;;;6.27;1.40;;;15.80;85.80;;;;;;5113072;28;20484;-70
2022/11/09 03:22:13;;;;;;;3.47;1.40;;;15.70;85.90;;;;;;5113482;28;20467;-70
2022/11/09 03:24:40;;;;;;;6.03;1.30;;;15.80;86.00;;;;;;5113544;28;20480;-70
2022/11/09 03:27:08;;;;;;;5.20;1.70;;;15.80;86.00;;;;;;5113837;28;20443;-70
2022/11/09 03:29:35;;;;;;;6.23;2.17;;;15.80;86.00;;;;;;5113147;28;20454;-70
2022/11/09 03:32:02;;;;;;;4.37;1.70;;;15.80;86.10;;;;;;5113426;28;20462;-70
2022/11/09 03:34:29;;;;;;;8.73;1.73;;;15.90;85.90;;;;;;5113544;28;20450;-70
2022/11/09 03:36:55;;;;;;;6.47;1.77;;;15.90;85.70;;;;;;5095828;28;20448;-70
2022/11/09 03:39:22;;;;;;;6.03;1.80;;;15.80;85.80;;;;;;5114008;28;20442;-70
2022/11/09 03:41:49;;;;;;;4.60;2.00;;;15.80;85.80;;;;;;5112733;28;20447;-70
2022/11/09 03:44:18;;;;;;;6.77;2.17;;;15.90;85.80;;;;;;5112867;28;20456;-70
2022/11/09 03:46:45;;;;;;;2.93;1.30;;;15.90;86.00;;;;;;5112599;28;20477;-70
2022/11/09 03:49:12;;;;;;;5.60;1.60;;;15.90;85.90;;;;;;5113543;28;20447;-70
2022/11/09 03:51:38;;;;;;;5.13;1.80;;;15.80;85.80;;;;;;5112986;28;20420;-70
2022/11/09 03:54:05;;;;;;;5.87;1.70;;;15.80;86.00;;;;;;5113168;28;20935;-70
2022/11/09 03:56:32;;;;;;;4.10;1.47;;;15.80;86.10;;;;;;5113316;28;20439;-70
2022/11/09 03:58:59;;;;;;;4.03;1.40;;;15.80;86.30;;;;;;5112616;28;20439;-70
2022/11/09 04:01:27;;;;;;;3.13;1.33;;;15.80;86.40;;;;;;5113211;28;20444;-70
2022/11/09 04:03:54;;;;;;;5.27;1.37;;;15.80;86.50;;;;;;5112332;28;20456;-70
2022/11/09 04:06:20;;;;;;;4.50;1.27;;;15.80;86.60;;;;;;5113108;28;20486;-70
2022/11/09 04:08:47;;;;;;;7.17;1.57;;;15.80;86.40;;;;;;5110499;28;20456;-70
2022/11/09 04:11:14;;;;;;;4.13;1.40;;;15.80;86.30;;;;;;5110385;28;20444;-70
2022/11/09 04:13:41;;;;;;;3.97;1.33;;;15.80;86.30;;;;;;5110583;28;20463;-70
2022/11/09 04:16:08;;;;;;;5.07;1.70;;;15.80;86.30;;;;;;5113410;28;20447;-70
2022/11/09 04:18:36;;;;;;;5.47;1.60;;;15.80;86.20;;;;;;5112722;28;20444;-70
2022/11/09 04:21:03;;;;;;;5.13;1.50;;;15.80;86.40;;;;;;5110740;28;20455;-70
2022/11/09 04:23:29;;;;;;;5.03;1.60;;;15.80;86.30;;;;;;5109598;28;20463;-70
2022/11/09 04:25:58;;;;;;;7.00;1.87;;;15.80;86.20;;;;;;5109419;28;20479;-70
2022/11/09 04:28:24;;;;;;;4.73;1.60;;;15.80;86.40;;;;;;5109637;28;20443;-70
2022/11/09 04:30:51;;;;;;;5.00;1.90;;;15.80;86.40;;;;;;5110087;28;20448;-70
2022/11/09 04:33:18;;;;;;;2.67;1.57;;;15.80;86.60;;;;;;5109137;28;20464;-70
2022/11/09 04:35:46;;;;;;;5.40;2.00;;;15.80;86.70;;;;;;5110528;28;20448;-70
2022/11/09 04:38:14;;;;;;;8.87;2.40;;;15.80;86.30;;;;;;5113817;28;20443;-70
2022/11/09 04:40:40;;;;;;;5.40;1.90;;;15.80;87.10;;;;;;5113760;28;20448;-70
2022/11/09 04:43:11;;;;;;;8.40;2.10;;;15.80;86.90;;;;;;5115979;28;20471;-70
2022/11/09 04:45:38;;;;;;;8.03;2.00;;;15.70;87.70;;;;;;5116160;28;20468;-70
2022/11/09 04:48:06;;;;;;;8.17;2.03;;;15.70;88.30;;;;;;5116246;28;20443;-70
2022/11/09 04:50:33;;;;;;;10.77;2.90;;;15.70;88.80;;;;;;5116182;28;20462;-70
2022/11/09 04:53:06;;;;;;;5.00;1.70;;;15.70;88.90;;;;;;5115213;28;20468;-70
2022/11/09 04:55:33;;;;;;;7.73;2.40;;;15.70;89.40;;;;;;5116118;28;20792;-70
2022/11/09 04:58:00;;;;;;;5.47;2.00;;;15.70;89.60;;;;;;5113993;28;20443;-70
2022/11/09 05:00:26;;;;;;;7.00;2.77;;;15.70;89.80;;;;;;5113247;28;20440;-70
2022/11/09 05:02:53;;;;;;;9.23;1.90;;;15.60;90.00;;;;;;5111749;28;20467;-70
2022/11/09 05:05:20;;;;;;;7.10;1.93;;;15.60;89.80;;;;;;5113210;28;20475;-70
2022/11/09 05:07:47;;;;;;;15.63;2.30;;;15.60;89.90;;;;;;5113074;28;20939;-69
2022/11/09 05:10:15;;;;;;;7.47;1.77;;;15.60;90.00;;;;;;5110699;28;20440;-69
2022/11/09 05:12:42;;;;;;;6.77;2.17;;;15.60;90.10;;;;;;5107139;28;20462;-69
2022/11/09 05:15:09;;;;;;;8.47;2.40;;;15.60;90.20;;;;;;5111277;28;20447;-69
2022/11/09 05:17:36;;;;;;;5.00;1.70;;;15.60;90.20;;;;;;5112297;28;20444;-69
2022/11/09 05:20:03;;;;;;;7.13;2.10;;;15.60;90.30;;;;;;5112371;28;20444;-69
2022/11/09 05:25:15;;;;;;;7.13;1.83;;;15.60;90.20;;;;;;5112363;28;20459;-70
2022/11/09 05:27:42;;;;;;;5.87;1.50;;;15.60;90.30;;;;;;5112411;28;20454;-70
2022/11/09 05:30:10;;;;;;;6.00;1.90;;;15.60;90.20;;;;;;5112107;28;20459;-70
2022/11/09 05:32:38;;;;;;;3.80;1.30;;;15.60;90.40;;;;;;5112442;28;20474;-70
2022/11/09 05:35:06;;;;;;;5.60;1.77;;;15.60;90.40;;;;;;5113201;28;20444;-70
2022/11/09 05:37:33;;;;;;;8.03;2.13;;;15.60;90.40;;;;;;5098541;28;20515;-69
2022/11/09 05:40:00;;;;;;;6.67;1.50;;;15.60;90.40;;;;;;5116210;28;20427;-69
2022/11/09 05:42:28;;;;;;;5.10;1.50;;;15.60;90.50;;;;;;5113586;28;20459;-70
2022/11/09 05:44:55;;;;;;;6.10;1.67;;;15.50;90.50;;;;;;5111478;28;20438;-70
2022/11/09 05:47:22;;;;;;;11.60;2.47;;;15.50;90.60;;;;;;5110014;28;20545;-70
2022/11/09 05:49:48;;;;;;;5.10;1.20;;;15.50;90.70;;;;;;5110088;28;20444;-69
2022/11/09 05:52:15;;;;;;;8.27;2.50;;;15.50;91.20;;;;;;5110436;28;20467;-69
2022/11/09 05:54:42;;;;;;;4.93;1.73;;;15.40;90.60;;;;;;5110658;28;20440;-69
2022/11/09 05:57:09;;;;;;;6.23;1.83;;;15.40;90.70;;;;;;5110324;28;20444;-69
2022/11/09 05:59:37;;;;;;;5.97;1.73;;;15.30;90.90;;;;;;5111102;28;20428;-69
2022/11/09 06:02:03;;;;;;;4.90;1.40;;;15.30;91.10;;;;;;5110162;28;20810;-69
2022/11/09 06:04:30;;;;;;;10.90;1.10;;;15.30;91.40;;;;;;5109969;28;20448;-69
2022/11/09 06:06:57;;;;;;;5.00;1.10;;;15.30;91.80;;;;;;5110201;28;20487;-69
2022/11/09 06:09:23;;;;;;;4.47;1.20;;;15.20;92.10;;;;;;5111213;28;20440;-69
2022/11/09 06:11:50;;;;;;;6.93;1.43;;;15.20;92.20;;;;;;5110570;28;20464;-70
2022/11/09 06:14:17;;;;;;;3.17;1.40;;;15.20;92.30;;;;;;5110231;28;20478;-70
2022/11/09 06:16:46;;;;;;;4.80;1.30;;;15.20;92.30;;;;;;5110975;28;20515;-70
2022/11/09 06:19:13;;;;;;;4.17;1.03;;;15.20;92.40;;;;;;5112478;28;20429;-70
2022/11/09 06:21:40;;;;;;;3.43;1.20;;;15.20;92.40;;;;;;5111887;28;20785;-70
2022/11/09 06:24:07;;;;;;;3.07;1.20;;;15.20;92.30;;;;;;5111537;28;20444;-70
2022/11/09 06:26:34;;;;;;;8.57;1.37;;;15.20;92.30;;;;;;5111082;28;20495;-70
2022/11/09 06:29:00;;;;;;;2.47;1.23;;;15.20;92.30;;;;;;5110446;28;20448;-70
2022/11/09 06:31:27;;;;;;;5.20;1.30;;;15.20;92.30;;;;;;5110307;28;20444;-70
2022/11/09 06:33:55;;;;;;;1.80;1.03;;;15.20;92.30;;;;;;5109073;28;20460;-69
2022/11/09 06:36:22;;;;;;;3.77;1.13;;;15.20;92.20;;;;;;5108402;28;20831;-70
2022/11/09 06:38:49;;;;;;;4.07;1.77;;;15.20;92.10;;;;;;5108549;28;20451;-70
2022/11/09 06:41:16;;;;;;;2.77;1.17;;;15.20;92.10;;;;;;5109613;28;20462;-70
2022/11/09 06:43:43;;;;;;;8.63;1.60;;;15.20;92.10;;;;;;5108881;28;20468;-70
2022/11/09 06:46:10;;;;;;;5.53;1.20;;;15.20;92.10;;;;;;5110640;28;20487;-70
2022/11/09 06:48:37;;;;;;;5.60;1.53;;;15.20;91.90;;;;;;5110253;28;20470;-70
2022/11/09 06:51:06;;;;;;;3.70;1.30;;;15.20;91.80;;;;;;5110902;28;20444;-69
2022/11/09 06:53:34;;;;;;;6.77;1.37;;;15.20;91.70;;;;;;5111289;28;20861;-70
2022/11/09 06:56:02;;;;;;;5.90;1.20;;;15.20;91.50;;;;;;5110881;28;20435;-70
2022/11/09 06:58:29;;;;;;;4.43;1.60;;;15.10;91.20;;;;;;5110172;28;20451;-70
2022/11/09 07:00:55;;;;;;;2.70;1.20;;;15.10;91.20;;;;;;5109428;28;20448;-70
2022/11/09 07:03:23;;;;;;;2.33;0.90;;;15.10;91.00;;;;;;5108437;28;20468;-70
2022/11/09 07:05:52;;;;;;;3.00;1.00;;;15.10;91.10;;;;;;5108702;28;20460;-70
2022/11/09 07:08:20;;;;;;;1.70;0.80;;;15.10;91.00;;;;;;5108882;28;20448;-70
2022/11/09 07:10:47;;;;;;;3.80;0.90;;;15.10;91.00;;;;;;5109568;28;20456;-70
2022/11/09 07:13:14;;;;;;;4.30;1.40;;;15.00;91.00;;;;;;5107386;28;20474;-70
2022/11/09 07:15:41;;;;;;;1.67;0.97;;;15.00;91.00;;;;;;5107554;28;20475;-70
2022/11/09 07:18:11;;;;;;;2.80;1.20;;;15.00;91.10;;;;;;5109224;28;20448;-70
2022/11/09 07:20:38;;;;;;;2.00;0.97;;;15.00;91.30;;;;;;5109000;28;20482;-70
2022/11/09 07:23:05;;;;;;;3.23;1.10;;;15.00;91.50;;;;;;5109547;28;20481;-70
2022/11/09 07:25:33;;;;;;;2.80;1.13;;;14.90;91.60;;;;;;5109958;28;20451;-70
2022/11/09 07:28:03;;;;;;;2.20;1.27;;;14.90;91.80;;;;;;5110482;28;20447;-70
2022/11/09 07:30:30;;;;;;;3.47;1.20;;;14.90;91.80;;;;;;5109198;28;20429;-70
2022/11/09 07:32:58;;;;;;;5.53;1.53;;;14.90;91.90;;;;;;5108750;28;20472;-70
2022/11/09 07:35:25;;;;;;;8.03;2.00;;;14.90;92.00;;;;;;5108313;28;20960;-69
2022/11/09 07:37:52;;;;;;;4.30;1.57;;;14.90;92.00;;;;;;5109018;28;20456;-70
2022/11/09 07:40:19;;;;;;;3.20;1.23;;;14.90;92.10;;;;;;5108357;28;20448;-70
2022/11/09 07:42:47;;;;;;;2.40;1.30;;;14.90;92.20;;;;;;5109100;28;20485;-70
2022/11/09 07:45:14;;;;;;;3.53;1.33;;;14.90;92.30;;;;;;5109272;28;20459;-70
2022/11/09 07:47:41;;;;;;;4.13;1.70;;;14.90;92.40;;;;;;5107712;28;20986;-70
2022/11/09 07:50:08;;;;;;;3.90;1.70;;;14.90;92.60;;;;;;5108552;28;20443;-69
2022/11/09 07:52:35;;;;;;;3.67;2.10;;;14.90;92.70;;;;;;5110019;28;20471;-70
2022/11/09 07:55:01;;;;;;;7.57;2.50;;;14.90;92.80;;;;;;5109554;28;20440;-70
2022/11/09 07:57:28;;;;;;;5.67;1.77;;;14.90;93.20;;;;;;5108462;28;20436;-70
2022/11/09 07:59:56;;;;;;;2.93;1.90;;;14.90;92.90;;;;;;5107579;28;20452;-70
2022/11/09 08:02:23;;;;;;;2.97;2.00;;;14.90;92.80;;;;;;5106628;28;20471;-70
2022/11/09 08:04:50;;;;;;;2.20;1.50;;;14.90;92.70;;;;;;5107908;28;20444;-70
2022/11/09 08:07:17;;;;;;;9.83;2.07;;;14.90;92.70;;;;;;5107342;28;20475;-70
2022/11/09 08:09:44;;;;;;;4.30;2.07;;;15.00;92.80;;;;;;5107963;28;20437;-70
2022/11/09 08:12:10;;;;;;;3.00;1.50;;;15.00;92.70;;;;;;5110806;28;20467;-70
2022/11/09 08:14:37;;;;;;;7.43;1.60;;;15.00;92.60;;;;;;5111715;28;20444;-70
2022/11/09 08:17:05;;;;;;;4.43;2.07;;;15.10;92.60;;;;;;5110942;28;20467;-70
2022/11/09 08:19:32;;;;;;;4.33;1.60;;;15.00;92.40;;;;;;5105015;28;20445;-70
2022/11/09 08:21:59;;;;;;;5.40;1.60;;;15.10;92.40;;;;;;5106623;28;20950;-70
2022/11/09 08:24:26;;;;;;;5.47;2.07;;;15.10;92.30;;;;;;5108569;28;20444;-70
2022/11/09 08:26:54;;;;;;;4.07;2.67;;;15.10;92.20;;;;;;5107726;28;20491;-70
2022/11/09 08:29:21;;;;;;;4.10;1.80;;;15.20;92.20;;;;;;5110234;28;20444;-70
2022/11/09 08:31:49;;;;;;;5.77;1.80;;;15.20;92.10;;;;;;5106876;28;20841;-70
2022/11/09 08:34:18;;;;;;;6.60;2.17;;;15.30;92.30;;;;;;5106923;28;20444;-70
2022/11/09 08:36:44;;;;;;;9.00;1.83;;;15.30;92.30;;;;;;5105815;28;20452;-70
2022/11/09 08:39:11;;;;;;;6.13;1.93;;;15.40;92.00;;;;;;5106325;28;20943;-70
2022/11/09 08:41:38;;;;;;;2.43;1.40;;;15.40;92.00;;;;;;5107090;28;20459;-71
2022/11/09 08:44:05;;;;;;;4.17;2.00;;;15.50;91.80;;;;;;5106911;28;20456;-71
2022/11/09 08:46:31;;;;;;;4.90;1.40;;;15.60;91.60;;;;;;5106632;28;20480;-70
2022/11/09 08:48:58;;;;;;;4.90;1.63;;;15.70;91.30;;;;;;5106819;28;20428;-69
2022/11/09 08:51:26;;;;;;;2.77;1.20;;;15.70;91.00;;;;;;5108749;28;20468;-68
2022/11/09 08:53:53;;;;;;;6.47;2.03;;;15.70;90.70;;;;;;5109483;28;20464;-68
2022/11/09 08:56:20;;;;;;;3.20;1.20;;;15.80;90.60;;;;;;5109397;28;20424;-68
2022/11/09 08:58:46;;;;;;;3.50;1.37;;;15.80;90.60;;;;;;5109644;28;20428;-67
2022/11/09 09:01:14;;;;;;;4.07;1.10;;;15.80;90.40;;;;;;5110222;28;20425;-69
2022/11/09 09:03:40;;;;;;;3.30;1.10;;;15.80;90.20;;;;;;5091960;28;20472;-68
2022/11/09 09:06:07;;;;;;;3.40;1.13;;;15.90;90.00;;;;;;5110269;28;20480;-68
2022/11/09 09:08:36;;;;;;;6.53;1.37;;;15.90;89.80;;;;;;5110169;28;20856;-69
2022/11/09 09:11:03;;;;;;;3.23;1.20;;;16.00;89.80;;;;;;5110547;28;20520;-68
2022/11/09 09:13:30;;;;;;;6.40;1.50;;;16.00;89.10;;;;;;5109570;28;20868;-68
2022/11/09 09:15:57;;;;;;;4.00;1.23;;;16.10;88.00;;;;;;5109257;28;20433;-68
2022/11/09 09:18:23;;;;;;;3.50;1.30;;;16.00;87.30;;;;;;5110482;28;20447;-68
2022/11/09 09:20:50;;;;;;;4.53;1.57;;;16.10;86.50;;;;;;5109858;28;20444;-67
2022/11/09 09:23:17;;;;;;;3.80;1.40;;;16.10;86.60;;;;;;5113846;28;20467;-69
2022/11/09 09:25:45;;;;;;;2.03;1.03;;;16.20;86.50;;;;;;5113856;28;20471;-69
2022/11/09 09:28:12;;;;;;;5.60;1.67;;;16.20;85.60;;;;;;5114393;28;20464;-69
2022/11/09 09:30:38;;;;;;;5.13;1.20;;;16.30;85.80;;;;;;5114102;28;20443;-68
2022/11/09 09:33:05;;;;;;;4.37;1.47;;;16.30;84.70;;;;;;5113042;28;20455;-68
2022/11/09 09:35:32;;;;;;;5.30;1.70;;;16.30;83.90;;;;;;5113378;28;20462;-67
2022/11/09 09:37:58;;;;;;;2.40;1.33;;;16.30;83.30;;;;;;5113288;28;20459;-67
2022/11/09 09:40:33;;;;;;;4.10;1.77;;;16.30;83.90;;;;;;5112504;28;20820;-67
2022/11/09 09:43:02;;;;;;;5.17;1.20;;;16.40;83.40;;;;;;5112443;28;20490;-67
2022/11/09 09:45:32;;;;;;;7.90;1.60;;;16.40;81.50;;;;;;5112318;28;20444;-68
2022/11/09 09:48:04;;;;;;;7.00;2.23;;;16.50;81.50;;;;;;5111813;28;20468;-67
2022/11/09 09:50:37;;;;;;;3.37;0.90;;;16.40;80.30;;;;;;5111957;28;20432;-67
2022/11/09 09:53:11;;;;;;;8.47;1.37;;;16.50;80.30;;;;;;5095329;28;20471;-68
2022/11/09 09:55:41;;;;;;;11.40;1.87;;;16.40;79.40;;;;;;5112367;28;20428;-68
2022/11/09 09:58:14;;;;;;;9.40;1.33;;;16.40;79.20;;;;;;5112172;28;20793;-68
2022/11/09 10:00:42;;;;;;;7.03;2.40;;;16.40;79.30;;;;;;5111883;28;20429;-67
2022/11/09 10:03:16;;;;;;;5.90;1.43;;;16.40;79.40;;;;;;5111190;28;20460;-67
2022/11/09 10:05:53;;;;;;;7.10;1.63;;;16.50;78.70;;;;;;5111603;28;20462;-67
2022/11/09 10:08:30;;;;;;;4.20;1.00;;;16.50;78.70;;;;;;5111546;28;20464;-67
2022/11/09 10:11:09;;;;;;;5.87;1.10;;;16.50;78.90;;;;;;5111873;28;20440;-67
2022/11/09 10:14:00;;;;;;;6.60;1.67;;;16.60;78.00;;;;;;5112243;28;20471;-67
2022/11/09 10:16:34;;;;;;;7.13;1.47;;;16.60;77.90;;;;;;5112078;28;20424;-69
2022/11/09 10:19:25;;;;;;;9.97;1.50;;;16.60;77.50;;;;;;5111716;28;20420;-68
2022/11/09 10:21:58;;;;;;;5.87;1.80;;;16.60;77.20;;;;;;5112660;28;20428;-67
2022/11/09 10:24:35;;;;;;;6.17;1.20;;;16.60;77.20;;;;;;5111945;28;20797;-67
2022/11/09 10:27:06;;;;;;;6.13;1.40;;;16.50;77.00;;;;;;5112493;28;20474;-67
2022/11/09 10:29:39;;;;;;;6.20;1.53;;;16.40;77.30;;;;;;5113359;28;20433;-68
2022/11/09 10:32:13;;;;;;;7.27;1.60;;;16.40;77.70;;;;;;5112240;28;20470;-68
2022/11/09 10:34:52;;;;;;;3.80;1.33;;;16.40;77.60;;;;;;5111694;28;20938;-68
2022/11/09 10:37:23;;;;;;;6.10;1.70;;;16.50;76.70;;;;;;5112199;28;20470;-68
2022/11/09 10:39:55;;;;;;;3.33;1.40;;;16.50;76.70;;;;;;5112469;28;20451;-68
2022/11/09 10:42:22;;;;;;;4.97;1.10;;;16.60;76.40;;;;;;5112374;28;20464;-68
2022/11/09 10:44:50;;;;;;;6.67;1.37;;;16.70;76.50;;;;;;5112042;28;20448;-69
2022/11/09 10:47:18;;;;;;;10.80;1.50;;;16.80;75.30;;;;;;5112803;28;20479;-68
2022/11/09 10:49:46;;;;;;;7.97;1.57;;;17.00;75.00;;;;;;5112386;28;20429;-67
2022/11/09 10:52:32;;;;;;;6.00;1.20;;;17.40;74.20;;;;;;5111613;28;20464;-67
2022/11/09 10:55:16;;;;;;;6.13;0.90;;;17.80;71.70;;;;;;5111899;28;20428;-67
2022/11/09 10:57:52;;;;;;;10.50;1.60;;;18.20;69.70;;;;;;5110581;28;20534;-67
2022/11/09 11:00:21;;;;;;;7.50;1.77;;;18.50;67.60;;;;;;5112031;28;20440;-73
2022/11/09 11:02:50;;;;;;;4.83;1.67;;;18.70;67.50;;;;;;5110714;28;20857;-69
2022/11/09 11:05:29;;;;;;;5.70;1.23;;;19.00;65.90;;;;;;5110665;28;20499;-69
2022/11/09 11:07:56;;;;;;;7.40;1.80;;;19.20;64.20;;;;;;5110214;28;20564;-70
2022/11/09 11:10:24;;;;;;;4.57;1.40;;;19.40;62.20;;;;;;5111029;28;20445;-70
2022/11/09 11:13:24;;;;;;;3.37;1.57;;;19.50;61.10;;;;;;5110272;28;20464;-72
2022/11/09 11:15:52;;;;;;;10.13;1.87;;;19.50;60.00;;;;;;5029364;28;20428;-70
2022/11/09 11:18:25;;;;;;;4.10;1.60;;;19.60;59.50;;;;;;5027282;28;20456;-71
2022/11/09 11:21:07;;;;;;;4.70;1.40;;;19.60;59.50;;;;;;5065298;28;20808;-70
2022/11/09 11:23:35;;;;;;;8.83;1.87;;;19.80;59.50;;;;;;5107725;28;20459;-71
2022/11/09 11:26:28;;;;;;;8.93;1.60;;;19.80;57.90;;;;;;5107206;28;20467;-71
2022/11/09 11:29:00;;;;;;;5.63;1.43;;;19.90;57.80;;;;;;5104479;28;20433;-70
2022/11/09 11:31:28;;;;;;;5.50;1.60;;;19.90;58.30;;;;;;5100658;28;20432;-71
2022/11/09 11:33:56;;;;;;;7.90;1.27;;;20.00;57.90;;;;;;5105933;28;20464;-71
2022/11/09 11:36:33;;;;;;;11.90;1.87;;;20.00;57.20;;;;;;5105985;28;20455;-70
2022/11/09 11:39:10;;;;;;;9.50;1.67;;;20.00;57.30;;;;;;5106456;28;20428;-71
2022/11/09 11:41:58;;;;;;;6.83;2.50;;;20.00;56.90;;;;;;5108507;28;20424;-71
2022/11/09 11:44:37;;;;;;;6.40;1.67;;;19.90;55.70;;;;;;5107429;28;20429;-71
2022/11/09 11:47:10;;;;;;;7.40;1.57;;;20.00;55.90;;;;;;5109343;28;20468;-71
2022/11/09 11:50:01;;;;;;;6.40;1.60;;;20.10;55.80;;;;;;5109165;28;20435;-71
2022/11/09 11:52:41;;;;;;;4.50;1.30;;;20.30;55.00;;;;;;5080294;28;20468;-71
2022/11/09 11:55:18;;;;;;;10.27;1.40;;;20.40;54.30;;;;;;5107016;28;20420;-71
2022/11/09 11:58:00;;;;;;;6.00;1.30;;;20.50;54.00;;;;;;5105446;28;20424;-70
2022/11/09 12:00:28;;;;;;;7.43;1.97;;;20.30;54.00;;;;;;5105993;28;20493;-71
2022/11/09 12:03:34;;;;;;;8.83;1.93;;;20.30;54.90;;;;;;5109551;28;20468;-71
2022/11/09 12:06:31;;;;;;;8.27;1.57;;;20.50;55.00;;;;;;5107949;28;20428;-71
2022/11/09 12:09:20;;;;;;;7.43;1.27;;;20.60;54.10;;;;;;5108894;28;20475;-70
2022/11/09 12:11:57;;;;;;;8.23;1.77;;;20.30;53.30;;;;;;5106612;28;20458;-70
2022/11/09 12:14:32;;;;;;;5.83;1.60;;;20.00;54.30;;;;;;5105075;28;20443;-70
2022/11/09 12:17:09;;;;;;;7.37;1.80;;;19.70;55.40;;;;;;5104657;28;20925;-70
2022/11/09 12:19:51;;;;;;;6.63;1.20;;;19.30;55.80;;;;;;5108221;28;20432;-71
2022/11/09 12:22:29;;;;;;;8.87;2.53;;;19.00;56.60;;;;;;5107858;28;20463;-71
2022/11/09 12:25:02;;;;;;;9.07;1.57;;;18.60;57.30;;;;;;5108909;28;20455;-71
2022/11/09 12:27:50;;;;;;;10.17;2.00;;;18.40;58.40;;;;;;5109459;28;20555;-70
2022/11/09 12:30:20;;;;;;;10.00;1.80;;;18.00;59.40;;;;;;5102976;28;20424;-70
2022/11/09 12:32:58;;;;;;;16.23;2.57;;;17.80;59.90;;;;;;5099763;28;20464;-70
2022/11/09 12:35:32;;;;;;;16.23;2.40;;;17.60;61.20;;;;;;5105453;28;20452;-69
2022/11/09 12:38:04;;;;;;;8.60;1.93;;;17.40;62.30;;;;;;5106040;28;20452;-69
2022/11/09 12:40:36;;;;;;;7.13;1.50;;;17.30;63.50;;;;;;5106795;28;20428;-70
2022/11/09 12:43:10;;;;;;;6.27;1.43;;;17.20;63.80;;;;;;5107477;28;20466;-70
2022/11/09 12:45:39;;;;;;;9.97;1.57;;;17.10;63.60;;;;;;5108108;28;20420;-69
2022/11/09 12:48:14;;;;;;;9.53;1.60;;;16.90;62.40;;;;;;5094752;28;20468;-71
2022/11/09 12:50:43;;;;;;;8.27;1.67;;;16.80;64.10;;;;;;5093741;28;20907;-72
2022/11/09 12:53:10;;;;;;;6.63;1.53;;;16.60;64.30;;;;;;5093658;28;20464;-72
2022/11/09 12:55:43;;;;;;;10.90;2.80;;;16.60;65.30;;;;;;5094159;28;20467;-71
2022/11/09 12:58:24;;;;;;;11.23;2.30;;;16.60;64.60;;;;;;5098181;28;20849;-70
2022/11/09 13:00:54;;;;;;;10.83;1.57;;;16.70;65.70;;;;;;5098142;28;20437;-71
2022/11/09 13:03:26;;;;;;;9.10;1.90;;;17.00;65.80;;;;;;5097943;28;20474;-72